sensor_id;sensor_type;location;lat;lon;timestamp;P1;durP1;ratioP1;P2;durP2;ratioP2
11608;SDS011;5860;52.018;8.536;2023-04-09T00:02:04;53.73;;;30.17;;
11608;SDS011;5860;52.018;8.536;2023-04-09T00:04:34;52.47;;;29.77;;
11608;SDS011;5860;52.018;8.536;2023-04-09T00:07:01;52.73;;;30.73;;
11608;SDS011;5860;52.018;8.536;2023-04-09T00:09:31;52.60;;;31.53;;
11608;SDS011;5860;52.018;8.536;2023-04-09T00:12:02;56.73;;;31.50;;
11608;SDS011;5860;52.018;8.536;2023-04-09T00:14:29;59.93;;;32.97;;
11608;SDS011;5860;52.018;8.536;2023-04-09T00:16:56;55.00;;;32.83;;
11608;SDS011;5860;52.018;8.536;2023-04-09T00:19:23;56.17;;;33.57;;
11608;SDS011;5860;52.018;8.536;2023-04-09T00:21:50;59.10;;;34.90;;
11608;SDS011;5860;52.018;8.536;2023-04-09T00:24:17;60.43;;;35.50;;
11608;SDS011;5860;52.018;8.536;2023-04-09T00:26:44;61.37;;;35.73;;
11608;SDS011;5860;52.018;8.536;2023-04-09T00:29:12;61.97;;;37.63;;
11608;SDS011;5860;52.018;8.536;2023-04-09T00:31:39;64.30;;;36.87;;
11608;SDS011;5860;52.018;8.536;2023-04-09T00:34:06;68.63;;;37.37;;
11608;SDS011;5860;52.018;8.536;2023-04-09T00:36:33;60.27;;;36.17;;
11608;SDS011;5860;52.018;8.536;2023-04-09T00:38:59;66.70;;;36.67;;
11608;SDS011;5860;52.018;8.536;2023-04-09T00:41:26;63.23;;;35.77;;
11608;SDS011;5860;52.018;8.536;2023-04-09T00:43:54;61.77;;;35.63;;
11608;SDS011;5860;52.018;8.536;2023-04-09T00:46:22;59.93;;;36.10;;
11608;SDS011;5860;52.018;8.536;2023-04-09T00:48:49;59.87;;;34.70;;
11608;SDS011;5860;52.018;8.536;2023-04-09T00:51:17;60.87;;;34.30;;
11608;SDS011;5860;52.018;8.536;2023-04-09T00:53:43;64.43;;;36.13;;
11608;SDS011;5860;52.018;8.536;2023-04-09T00:56:11;63.33;;;34.60;;
11608;SDS011;5860;52.018;8.536;2023-04-09T00:58:40;60.43;;;35.93;;
11608;SDS011;5860;52.018;8.536;2023-04-09T01:01:07;59.67;;;34.07;;
11608;SDS011;5860;52.018;8.536;2023-04-09T01:03:34;58.70;;;34.20;;
11608;SDS011;5860;52.018;8.536;2023-04-09T01:06:06;61.60;;;34.27;;
11608;SDS011;5860;52.018;8.536;2023-04-09T01:08:50;61.87;;;34.30;;
11608;SDS011;5860;52.018;8.536;2023-04-09T01:16:52;61.97;;;34.43;;
11608;SDS011;5860;52.018;8.536;2023-04-09T01:22:22;63.10;;;36.57;;
11608;SDS011;5860;52.018;8.536;2023-04-09T01:24:56;67.13;;;37.13;;
11608;SDS011;5860;52.018;8.536;2023-04-09T01:27:33;67.60;;;38.17;;
11608;SDS011;5860;52.018;8.536;2023-04-09T01:30:12;67.90;;;37.27;;
11608;SDS011;5860;52.018;8.536;2023-04-09T01:32:41;67.63;;;38.00;;
11608;SDS011;5860;52.018;8.536;2023-04-09T01:35:09;69.20;;;38.77;;
11608;SDS011;5860;52.018;8.536;2023-04-09T01:37:36;66.67;;;38.63;;
11608;SDS011;5860;52.018;8.536;2023-04-09T01:40:03;67.93;;;38.17;;
11608;SDS011;5860;52.018;8.536;2023-04-09T01:42:31;76.03;;;40.10;;
11608;SDS011;5860;52.018;8.536;2023-04-09T01:44:58;82.27;;;42.07;;
11608;SDS011;5860;52.018;8.536;2023-04-09T01:47:26;77.63;;;40.50;;
11608;SDS011;5860;52.018;8.536;2023-04-09T01:49:54;73.20;;;40.20;;
11608;SDS011;5860;52.018;8.536;2023-04-09T01:52:21;80.27;;;42.97;;
11608;SDS011;5860;52.018;8.536;2023-04-09T01:54:48;86.37;;;44.63;;
11608;SDS011;5860;52.018;8.536;2023-04-09T01:57:15;84.07;;;43.80;;
11608;SDS011;5860;52.018;8.536;2023-04-09T01:59:42;90.20;;;46.87;;
11608;SDS011;5860;52.018;8.536;2023-04-09T02:02:11;81.20;;;44.37;;
11608;SDS011;5860;52.018;8.536;2023-04-09T02:04:45;80.37;;;45.13;;
11608;SDS011;5860;52.018;8.536;2023-04-09T02:09:50;90.37;;;48.17;;
11608;SDS011;5860;52.018;8.536;2023-04-09T02:12:19;91.43;;;47.77;;
11608;SDS011;5860;52.018;8.536;2023-04-09T02:14:49;96.57;;;50.50;;
11608;SDS011;5860;52.018;8.536;2023-04-09T02:17:17;90.27;;;47.37;;
11608;SDS011;5860;52.018;8.536;2023-04-09T02:19:45;96.80;;;49.03;;
11608;SDS011;5860;52.018;8.536;2023-04-09T02:22:14;95.97;;;49.57;;
11608;SDS011;5860;52.018;8.536;2023-04-09T02:24:42;98.40;;;50.97;;
11608;SDS011;5860;52.018;8.536;2023-04-09T02:27:09;99.73;;;50.13;;
11608;SDS011;5860;52.018;8.536;2023-04-09T02:29:36;93.30;;;51.27;;
11608;SDS011;5860;52.018;8.536;2023-04-09T02:32:04;94.50;;;50.63;;
11608;SDS011;5860;52.018;8.536;2023-04-09T02:34:31;97.10;;;51.33;;
11608;SDS011;5860;52.018;8.536;2023-04-09T02:36:58;101.30;;;51.60;;
11608;SDS011;5860;52.018;8.536;2023-04-09T02:39:25;92.37;;;48.93;;
11608;SDS011;5860;52.018;8.536;2023-04-09T02:41:52;99.07;;;48.90;;
11608;SDS011;5860;52.018;8.536;2023-04-09T02:44:19;100.53;;;47.40;;
11608;SDS011;5860;52.018;8.536;2023-04-09T02:46:46;94.63;;;47.07;;
11608;SDS011;5860;52.018;8.536;2023-04-09T02:49:14;91.47;;;46.63;;
11608;SDS011;5860;52.018;8.536;2023-04-09T02:51:42;91.03;;;46.03;;
11608;SDS011;5860;52.018;8.536;2023-04-09T02:54:10;86.93;;;44.53;;
11608;SDS011;5860;52.018;8.536;2023-04-09T02:56:37;85.73;;;45.50;;
11608;SDS011;5860;52.018;8.536;2023-04-09T02:59:03;87.67;;;45.20;;
11608;SDS011;5860;52.018;8.536;2023-04-09T03:01:30;84.77;;;43.73;;
11608;SDS011;5860;52.018;8.536;2023-04-09T03:03:57;86.70;;;43.53;;
11608;SDS011;5860;52.018;8.536;2023-04-09T03:06:26;79.67;;;43.40;;
11608;SDS011;5860;52.018;8.536;2023-04-09T03:08:53;88.90;;;44.13;;
11608;SDS011;5860;52.018;8.536;2023-04-09T03:11:20;80.80;;;42.47;;
11608;SDS011;5860;52.018;8.536;2023-04-09T03:13:47;81.77;;;42.37;;
11608;SDS011;5860;52.018;8.536;2023-04-09T03:16:14;82.93;;;43.27;;
11608;SDS011;5860;52.018;8.536;2023-04-09T03:18:41;92.97;;;45.67;;
11608;SDS011;5860;52.018;8.536;2023-04-09T03:21:09;79.23;;;41.17;;
11608;SDS011;5860;52.018;8.536;2023-04-09T03:23:39;80.73;;;40.27;;
11608;SDS011;5860;52.018;8.536;2023-04-09T03:26:06;83.83;;;44.13;;
11608;SDS011;5860;52.018;8.536;2023-04-09T03:28:33;78.37;;;41.30;;
11608;SDS011;5860;52.018;8.536;2023-04-09T03:31:00;81.77;;;43.00;;
11608;SDS011;5860;52.018;8.536;2023-04-09T03:33:28;85.10;;;43.53;;
11608;SDS011;5860;52.018;8.536;2023-04-09T03:35:54;86.57;;;43.50;;
11608;SDS011;5860;52.018;8.536;2023-04-09T03:38:22;88.00;;;43.27;;
11608;SDS011;5860;52.018;8.536;2023-04-09T03:40:49;83.43;;;42.90;;
11608;SDS011;5860;52.018;8.536;2023-04-09T03:43:16;100.67;;;45.37;;
11608;SDS011;5860;52.018;8.536;2023-04-09T03:45:43;93.40;;;43.50;;
11608;SDS011;5860;52.018;8.536;2023-04-09T03:48:10;97.33;;;43.87;;
11608;SDS011;5860;52.018;8.536;2023-04-09T03:50:38;94.57;;;44.70;;
11608;SDS011;5860;52.018;8.536;2023-04-09T03:53:06;91.73;;;45.73;;
11608;SDS011;5860;52.018;8.536;2023-04-09T03:55:33;97.80;;;46.47;;
11608;SDS011;5860;52.018;8.536;2023-04-09T03:58:00;96.87;;;45.47;;
11608;SDS011;5860;52.018;8.536;2023-04-09T04:00:27;93.33;;;45.27;;
11608;SDS011;5860;52.018;8.536;2023-04-09T04:02:54;96.80;;;47.50;;
11608;SDS011;5860;52.018;8.536;2023-04-09T04:05:22;98.80;;;47.70;;
11608;SDS011;5860;52.018;8.536;2023-04-09T04:07:51;97.10;;;46.50;;
11608;SDS011;5860;52.018;8.536;2023-04-09T04:10:18;95.63;;;46.70;;
11608;SDS011;5860;52.018;8.536;2023-04-09T04:12:45;112.83;;;47.90;;
11608;SDS011;5860;52.018;8.536;2023-04-09T04:15:12;109.67;;;48.60;;
11608;SDS011;5860;52.018;8.536;2023-04-09T04:17:39;112.87;;;51.03;;
11608;SDS011;5860;52.018;8.536;2023-04-09T04:20:06;123.13;;;53.23;;
11608;SDS011;5860;52.018;8.536;2023-04-09T04:22:34;165.67;;;55.60;;
11608;SDS011;5860;52.018;8.536;2023-04-09T04:25:02;149.63;;;56.23;;
11608;SDS011;5860;52.018;8.536;2023-04-09T04:27:30;273.07;;;59.13;;
11608;SDS011;5860;52.018;8.536;2023-04-09T04:29:57;250.93;;;61.57;;
11608;SDS011;5860;52.018;8.536;2023-04-09T04:32:27;283.00;;;59.30;;
11608;SDS011;5860;52.018;8.536;2023-04-09T04:34:54;359.43;;;65.67;;
11608;SDS011;5860;52.018;8.536;2023-04-09T04:37:21;401.07;;;67.77;;
11608;SDS011;5860;52.018;8.536;2023-04-09T04:39:48;469.63;;;69.47;;
11608;SDS011;5860;52.018;8.536;2023-04-09T04:42:15;295.40;;;58.77;;
11608;SDS011;5860;52.018;8.536;2023-04-09T04:44:43;451.27;;;66.97;;
11608;SDS011;5860;52.018;8.536;2023-04-09T04:47:10;393.10;;;65.83;;
11608;SDS011;5860;52.018;8.536;2023-04-09T04:49:37;485.00;;;66.40;;
11608;SDS011;5860;52.018;8.536;2023-04-09T04:52:04;461.70;;;68.47;;
11608;SDS011;5860;52.018;8.536;2023-04-09T04:54:32;472.33;;;66.20;;
11608;SDS011;5860;52.018;8.536;2023-04-09T04:56:59;386.97;;;63.93;;
11608;SDS011;5860;52.018;8.536;2023-04-09T04:59:26;346.20;;;54.23;;
11608;SDS011;5860;52.018;8.536;2023-04-09T05:01:53;407.47;;;59.67;;
11608;SDS011;5860;52.018;8.536;2023-04-09T05:04:20;409.47;;;61.13;;
11608;SDS011;5860;52.018;8.536;2023-04-09T05:06:48;268.63;;;54.63;;
11608;SDS011;5860;52.018;8.536;2023-04-09T05:09:14;403.47;;;54.67;;
11608;SDS011;5860;52.018;8.536;2023-04-09T05:11:42;332.33;;;48.87;;
11608;SDS011;5860;52.018;8.536;2023-04-09T05:14:09;301.27;;;48.13;;
11608;SDS011;5860;52.018;8.536;2023-04-09T05:16:35;436.53;;;55.70;;
11608;SDS011;5860;52.018;8.536;2023-04-09T05:19:02;402.10;;;58.37;;
11608;SDS011;5860;52.018;8.536;2023-04-09T05:21:29;329.63;;;51.93;;
11608;SDS011;5860;52.018;8.536;2023-04-09T05:23:57;478.97;;;65.17;;
11608;SDS011;5860;52.018;8.536;2023-04-09T05:26:24;287.93;;;50.17;;
11608;SDS011;5860;52.018;8.536;2023-04-09T05:28:52;429.60;;;59.57;;
11608;SDS011;5860;52.018;8.536;2023-04-09T05:31:19;433.57;;;59.20;;
11608;SDS011;5860;52.018;8.536;2023-04-09T05:33:49;299.33;;;52.20;;
11608;SDS011;5860;52.018;8.536;2023-04-09T05:36:16;277.50;;;51.70;;
11608;SDS011;5860;52.018;8.536;2023-04-09T05:38:47;301.47;;;52.13;;
11608;SDS011;5860;52.018;8.536;2023-04-09T05:41:14;231.63;;;51.53;;
11608;SDS011;5860;52.018;8.536;2023-04-09T05:43:41;261.17;;;49.00;;
11608;SDS011;5860;52.018;8.536;2023-04-09T05:46:08;171.90;;;44.93;;
11608;SDS011;5860;52.018;8.536;2023-04-09T05:48:35;218.37;;;48.77;;
11608;SDS011;5860;52.018;8.536;2023-04-09T05:51:02;233.73;;;48.60;;
11608;SDS011;5860;52.018;8.536;2023-04-09T05:53:29;210.27;;;49.67;;
11608;SDS011;5860;52.018;8.536;2023-04-09T05:55:57;226.03;;;48.03;;
11608;SDS011;5860;52.018;8.536;2023-04-09T05:58:24;121.13;;;43.57;;
11608;SDS011;5860;52.018;8.536;2023-04-09T06:00:53;212.27;;;46.63;;
11608;SDS011;5860;52.018;8.536;2023-04-09T06:03:20;322.73;;;49.47;;
11608;SDS011;5860;52.018;8.536;2023-04-09T06:05:47;269.80;;;47.30;;
11608;SDS011;5860;52.018;8.536;2023-04-09T06:08:14;285.57;;;48.27;;
11608;SDS011;5860;52.018;8.536;2023-04-09T06:10:42;411.07;;;48.07;;
11608;SDS011;5860;52.018;8.536;2023-04-09T06:13:08;253.70;;;46.07;;
11608;SDS011;5860;52.018;8.536;2023-04-09T06:15:36;235.00;;;46.07;;
11608;SDS011;5860;52.018;8.536;2023-04-09T06:18:04;241.87;;;46.10;;
11608;SDS011;5860;52.018;8.536;2023-04-09T06:20:32;110.73;;;40.20;;
11608;SDS011;5860;52.018;8.536;2023-04-09T06:22:59;172.93;;;43.43;;
11608;SDS011;5860;52.018;8.536;2023-04-09T06:25:25;202.03;;;45.93;;
11608;SDS011;5860;52.018;8.536;2023-04-09T06:27:52;210.47;;;44.53;;
11608;SDS011;5860;52.018;8.536;2023-04-09T06:30:19;178.07;;;43.73;;
11608;SDS011;5860;52.018;8.536;2023-04-09T06:32:47;157.30;;;41.27;;
11608;SDS011;5860;52.018;8.536;2023-04-09T06:35:20;122.23;;;39.33;;
11608;SDS011;5860;52.018;8.536;2023-04-09T06:37:47;118.83;;;39.77;;
11608;SDS011;5860;52.018;8.536;2023-04-09T06:40:14;87.97;;;38.30;;
11608;SDS011;5860;52.018;8.536;2023-04-09T06:42:41;146.17;;;39.37;;
11608;SDS011;5860;52.018;8.536;2023-04-09T06:45:08;124.63;;;37.27;;
11608;SDS011;5860;52.018;8.536;2023-04-09T06:47:35;108.17;;;37.73;;
11608;SDS011;5860;52.018;8.536;2023-04-09T06:50:02;69.10;;;34.20;;
11608;SDS011;5860;52.018;8.536;2023-04-09T06:52:30;54.97;;;32.67;;
11608;SDS011;5860;52.018;8.536;2023-04-09T06:54:57;59.13;;;33.00;;
11608;SDS011;5860;52.018;8.536;2023-04-09T06:57:24;59.17;;;32.00;;
11608;SDS011;5860;52.018;8.536;2023-04-09T06:59:51;61.30;;;33.27;;
11608;SDS011;5860;52.018;8.536;2023-04-09T07:02:18;69.57;;;31.50;;
11608;SDS011;5860;52.018;8.536;2023-04-09T07:04:45;83.30;;;32.30;;
11608;SDS011;5860;52.018;8.536;2023-04-09T07:07:13;56.53;;;30.50;;
11608;SDS011;5860;52.018;8.536;2023-04-09T07:09:40;63.50;;;29.93;;
11608;SDS011;5860;52.018;8.536;2023-04-09T07:12:07;66.17;;;30.30;;
11608;SDS011;5860;52.018;8.536;2023-04-09T07:14:34;51.30;;;28.70;;
11608;SDS011;5860;52.018;8.536;2023-04-09T07:17:01;54.43;;;28.17;;
11608;SDS011;5860;52.018;8.536;2023-04-09T07:19:28;49.20;;;28.90;;
11608;SDS011;5860;52.018;8.536;2023-04-09T07:21:56;44.93;;;27.53;;
11608;SDS011;5860;52.018;8.536;2023-04-09T07:24:23;42.80;;;28.43;;
11608;SDS011;5860;52.018;8.536;2023-04-09T07:26:50;38.67;;;26.93;;
11608;SDS011;5860;52.018;8.536;2023-04-09T07:29:17;39.27;;;27.97;;
11608;SDS011;5860;52.018;8.536;2023-04-09T07:31:46;39.87;;;26.90;;
11608;SDS011;5860;52.018;8.536;2023-04-09T07:34:13;40.83;;;27.87;;
11608;SDS011;5860;52.018;8.536;2023-04-09T07:36:40;48.17;;;28.40;;
11608;SDS011;5860;52.018;8.536;2023-04-09T07:39:08;56.40;;;28.20;;
11608;SDS011;5860;52.018;8.536;2023-04-09T07:41:35;41.07;;;27.43;;
11608;SDS011;5860;52.018;8.536;2023-04-09T07:44:02;39.73;;;27.13;;
11608;SDS011;5860;52.018;8.536;2023-04-09T07:46:31;39.50;;;26.97;;
11608;SDS011;5860;52.018;8.536;2023-04-09T07:48:58;44.50;;;27.70;;
11608;SDS011;5860;52.018;8.536;2023-04-09T07:51:26;47.73;;;27.27;;
11608;SDS011;5860;52.018;8.536;2023-04-09T07:53:53;43.97;;;26.73;;
11608;SDS011;5860;52.018;8.536;2023-04-09T07:56:19;40.53;;;28.27;;
11608;SDS011;5860;52.018;8.536;2023-04-09T07:58:46;38.87;;;26.13;;
11608;SDS011;5860;52.018;8.536;2023-04-09T08:01:15;36.00;;;26.03;;
11608;SDS011;5860;52.018;8.536;2023-04-09T08:03:42;38.17;;;25.33;;
11608;SDS011;5860;52.018;8.536;2023-04-09T08:06:09;39.33;;;26.00;;
11608;SDS011;5860;52.018;8.536;2023-04-09T08:08:36;39.97;;;26.70;;
11608;SDS011;5860;52.018;8.536;2023-04-09T08:11:03;32.33;;;24.17;;
11608;SDS011;5860;52.018;8.536;2023-04-09T08:13:30;32.83;;;24.70;;
11608;SDS011;5860;52.018;8.536;2023-04-09T08:15:59;33.60;;;23.97;;
11608;SDS011;5860;52.018;8.536;2023-04-09T08:18:27;37.37;;;25.70;;
11608;SDS011;5860;52.018;8.536;2023-04-09T08:20:55;32.50;;;24.67;;
11608;SDS011;5860;52.018;8.536;2023-04-09T08:23:22;33.00;;;24.30;;
11608;SDS011;5860;52.018;8.536;2023-04-09T08:25:49;33.70;;;23.93;;
11608;SDS011;5860;52.018;8.536;2023-04-09T08:28:16;32.20;;;24.57;;
11608;SDS011;5860;52.018;8.536;2023-04-09T08:30:42;31.93;;;22.93;;
11608;SDS011;5860;52.018;8.536;2023-04-09T08:33:10;30.37;;;23.27;;
11608;SDS011;5860;52.018;8.536;2023-04-09T08:35:38;31.00;;;23.63;;
11608;SDS011;5860;52.018;8.536;2023-04-09T08:38:06;28.50;;;22.17;;
11608;SDS011;5860;52.018;8.536;2023-04-09T08:40:34;33.57;;;23.43;;
11608;SDS011;5860;52.018;8.536;2023-04-09T08:43:03;32.13;;;23.67;;
11608;SDS011;5860;52.018;8.536;2023-04-09T08:45:31;34.00;;;24.80;;
11608;SDS011;5860;52.018;8.536;2023-04-09T08:47:59;35.17;;;25.27;;
11608;SDS011;5860;52.018;8.536;2023-04-09T08:50:32;32.87;;;23.87;;
11608;SDS011;5860;52.018;8.536;2023-04-09T08:53:02;33.77;;;24.80;;
11608;SDS011;5860;52.018;8.536;2023-04-09T08:55:31;32.03;;;23.73;;
11608;SDS011;5860;52.018;8.536;2023-04-09T08:58:03;32.73;;;24.90;;
11608;SDS011;5860;52.018;8.536;2023-04-09T09:00:32;34.13;;;23.93;;
11608;SDS011;5860;52.018;8.536;2023-04-09T09:03:00;32.80;;;25.00;;
11608;SDS011;5860;52.018;8.536;2023-04-09T09:05:36;35.53;;;25.17;;
11608;SDS011;5860;52.018;8.536;2023-04-09T09:08:10;34.17;;;25.30;;
11608;SDS011;5860;52.018;8.536;2023-04-09T09:10:43;35.30;;;25.37;;
11608;SDS011;5860;52.018;8.536;2023-04-09T09:13:17;33.23;;;25.07;;
11608;SDS011;5860;52.018;8.536;2023-04-09T09:15:44;32.57;;;24.97;;
11608;SDS011;5860;52.018;8.536;2023-04-09T09:18:15;31.87;;;25.20;;
11608;SDS011;5860;52.018;8.536;2023-04-09T09:20:43;33.60;;;25.87;;
11608;SDS011;5860;52.018;8.536;2023-04-09T09:23:10;33.67;;;25.73;;
11608;SDS011;5860;52.018;8.536;2023-04-09T09:25:40;31.50;;;24.87;;
11608;SDS011;5860;52.018;8.536;2023-04-09T09:28:11;33.37;;;24.53;;
11608;SDS011;5860;52.018;8.536;2023-04-09T09:30:38;32.40;;;23.07;;
11608;SDS011;5860;52.018;8.536;2023-04-09T09:33:07;29.63;;;22.23;;
11608;SDS011;5860;52.018;8.536;2023-04-09T09:35:48;30.80;;;23.07;;
11608;SDS011;5860;52.018;8.536;2023-04-09T09:38:17;29.03;;;22.60;;
11608;SDS011;5860;52.018;8.536;2023-04-09T09:40:45;29.97;;;22.67;;
11608;SDS011;5860;52.018;8.536;2023-04-09T09:43:13;30.17;;;23.90;;
11608;SDS011;5860;52.018;8.536;2023-04-09T09:45:40;26.80;;;22.10;;
11608;SDS011;5860;52.018;8.536;2023-04-09T09:48:09;27.67;;;21.90;;
11608;SDS011;5860;52.018;8.536;2023-04-09T09:50:41;29.83;;;22.47;;
11608;SDS011;5860;52.018;8.536;2023-04-09T09:53:10;28.70;;;21.77;;
11608;SDS011;5860;52.018;8.536;2023-04-09T09:55:38;25.00;;;20.27;;
11608;SDS011;5860;52.018;8.536;2023-04-09T09:58:09;28.97;;;21.30;;
11608;SDS011;5860;52.018;8.536;2023-04-09T10:00:42;27.10;;;20.23;;
11608;SDS011;5860;52.018;8.536;2023-04-09T10:03:18;24.87;;;19.93;;
11608;SDS011;5860;52.018;8.536;2023-04-09T10:05:48;26.53;;;20.07;;
11608;SDS011;5860;52.018;8.536;2023-04-09T10:08:19;27.00;;;19.80;;
11608;SDS011;5860;52.018;8.536;2023-04-09T10:10:47;25.43;;;19.87;;
11608;SDS011;5860;52.018;8.536;2023-04-09T10:13:29;26.53;;;19.20;;
11608;SDS011;5860;52.018;8.536;2023-04-09T10:16:00;22.73;;;17.20;;
11608;SDS011;5860;52.018;8.536;2023-04-09T10:18:28;19.23;;;14.77;;
11608;SDS011;5860;52.018;8.536;2023-04-09T10:23:35;22.73;;;16.33;;
11608;SDS011;5860;52.018;8.536;2023-04-09T10:26:05;18.97;;;15.17;;
11608;SDS011;5860;52.018;8.536;2023-04-09T10:28:32;21.20;;;16.03;;
11608;SDS011;5860;52.018;8.536;2023-04-09T10:30:59;19.63;;;15.63;;
11608;SDS011;5860;52.018;8.536;2023-04-09T10:33:27;18.47;;;14.10;;
11608;SDS011;5860;52.018;8.536;2023-04-09T10:35:55;19.07;;;15.27;;
11608;SDS011;5860;52.018;8.536;2023-04-09T10:38:47;15.53;;;12.03;;
11608;SDS011;5860;52.018;8.536;2023-04-09T10:41:26;15.23;;;12.00;;
11608;SDS011;5860;52.018;8.536;2023-04-09T10:43:55;14.17;;;10.93;;
11608;SDS011;5860;52.018;8.536;2023-04-09T10:46:27;15.10;;;12.33;;
11608;SDS011;5860;52.018;8.536;2023-04-09T10:49:37;15.47;;;12.17;;
11608;SDS011;5860;52.018;8.536;2023-04-09T10:52:06;14.20;;;11.73;;
11608;SDS011;5860;52.018;8.536;2023-04-09T10:54:40;13.60;;;11.87;;
11608;SDS011;5860;52.018;8.536;2023-04-09T10:57:12;13.23;;;11.20;;
11608;SDS011;5860;52.018;8.536;2023-04-09T10:59:46;14.73;;;11.80;;
11608;SDS011;5860;52.018;8.536;2023-04-09T11:07:34;11.90;;;10.27;;
11608;SDS011;5860;52.018;8.536;2023-04-09T11:10:06;11.17;;;9.97;;
11608;SDS011;5860;52.018;8.536;2023-04-09T11:12:33;12.37;;;10.50;;
11608;SDS011;5860;52.018;8.536;2023-04-09T11:15:00;12.13;;;10.77;;
11608;SDS011;5860;52.018;8.536;2023-04-09T11:17:27;12.43;;;10.17;;
11608;SDS011;5860;52.018;8.536;2023-04-09T11:19:58;11.73;;;9.97;;
11608;SDS011;5860;52.018;8.536;2023-04-09T11:22:25;11.93;;;9.67;;
11608;SDS011;5860;52.018;8.536;2023-04-09T11:24:53;12.10;;;9.87;;
11608;SDS011;5860;52.018;8.536;2023-04-09T11:27:20;11.63;;;9.80;;
11608;SDS011;5860;52.018;8.536;2023-04-09T11:29:47;11.63;;;10.00;;
11608;SDS011;5860;52.018;8.536;2023-04-09T11:32:14;12.27;;;10.00;;
11608;SDS011;5860;52.018;8.536;2023-04-09T11:34:41;11.97;;;9.50;;
11608;SDS011;5860;52.018;8.536;2023-04-09T11:37:12;11.23;;;9.57;;
11608;SDS011;5860;52.018;8.536;2023-04-09T11:39:44;12.60;;;9.70;;
11608;SDS011;5860;52.018;8.536;2023-04-09T11:42:15;11.97;;;10.20;;
11608;SDS011;5860;52.018;8.536;2023-04-09T11:44:45;11.40;;;9.20;;
11608;SDS011;5860;52.018;8.536;2023-04-09T11:47:14;11.73;;;9.57;;
11608;SDS011;5860;52.018;8.536;2023-04-09T11:49:45;11.73;;;9.60;;
11608;SDS011;5860;52.018;8.536;2023-04-09T11:52:12;11.90;;;9.67;;
11608;SDS011;5860;52.018;8.536;2023-04-09T11:54:42;11.20;;;9.53;;
11608;SDS011;5860;52.018;8.536;2023-04-09T11:57:16;11.27;;;9.57;;
11608;SDS011;5860;52.018;8.536;2023-04-09T11:59:43;12.30;;;9.27;;
11608;SDS011;5860;52.018;8.536;2023-04-09T12:02:10;11.63;;;9.87;;
11608;SDS011;5860;52.018;8.536;2023-04-09T12:04:47;110.10;;;87.23;;
11608;SDS011;5860;52.018;8.536;2023-04-09T12:07:14;101.67;;;66.83;;
11608;SDS011;5860;52.018;8.536;2023-04-09T12:09:46;11.43;;;10.10;;
11608;SDS011;5860;52.018;8.536;2023-04-09T12:12:17;9.87;;;8.70;;
11608;SDS011;5860;52.018;8.536;2023-04-09T12:14:45;10.10;;;9.00;;
11608;SDS011;5860;52.018;8.536;2023-04-09T12:17:12;11.17;;;9.67;;
11608;SDS011;5860;52.018;8.536;2023-04-09T12:19:39;9.40;;;8.17;;
11608;SDS011;5860;52.018;8.536;2023-04-09T12:22:06;11.50;;;8.73;;
11608;SDS011;5860;52.018;8.536;2023-04-09T12:24:33;11.00;;;9.17;;
11608;SDS011;5860;52.018;8.536;2023-04-09T12:27:00;12.10;;;8.97;;
11608;SDS011;5860;52.018;8.536;2023-04-09T12:29:27;13.90;;;10.17;;
11608;SDS011;5860;52.018;8.536;2023-04-09T12:31:55;10.77;;;9.37;;
11608;SDS011;5860;52.018;8.536;2023-04-09T12:34:22;11.80;;;10.23;;
11608;SDS011;5860;52.018;8.536;2023-04-09T12:36:49;47.43;;;33.93;;
11608;SDS011;5860;52.018;8.536;2023-04-09T12:39:16;14.27;;;12.63;;
11608;SDS011;5860;52.018;8.536;2023-04-09T12:41:43;11.97;;;9.70;;
11608;SDS011;5860;52.018;8.536;2023-04-09T12:44:13;12.10;;;9.57;;
11608;SDS011;5860;52.018;8.536;2023-04-09T12:46:40;9.40;;;8.40;;
11608;SDS011;5860;52.018;8.536;2023-04-09T12:49:07;10.80;;;8.27;;
11608;SDS011;5860;52.018;8.536;2023-04-09T12:51:34;10.70;;;8.43;;
11608;SDS011;5860;52.018;8.536;2023-04-09T12:54:01;11.60;;;9.63;;
11608;SDS011;5860;52.018;8.536;2023-04-09T12:56:29;10.07;;;8.90;;
11608;SDS011;5860;52.018;8.536;2023-04-09T12:58:56;12.87;;;9.80;;
11608;SDS011;5860;52.018;8.536;2023-04-09T13:01:23;11.83;;;9.80;;
11608;SDS011;5860;52.018;8.536;2023-04-09T13:03:51;12.30;;;10.13;;
11608;SDS011;5860;52.018;8.536;2023-04-09T13:06:19;12.87;;;10.03;;
11608;SDS011;5860;52.018;8.536;2023-04-09T13:08:47;12.33;;;9.30;;
11608;SDS011;5860;52.018;8.536;2023-04-09T13:11:14;11.80;;;9.67;;
11608;SDS011;5860;52.018;8.536;2023-04-09T13:13:41;12.43;;;9.87;;
11608;SDS011;5860;52.018;8.536;2023-04-09T13:16:08;12.00;;;9.40;;
11608;SDS011;5860;52.018;8.536;2023-04-09T13:18:35;14.53;;;11.40;;
11608;SDS011;5860;52.018;8.536;2023-04-09T13:21:03;11.40;;;9.67;;
11608;SDS011;5860;52.018;8.536;2023-04-09T13:23:30;12.50;;;10.17;;
11608;SDS011;5860;52.018;8.536;2023-04-09T13:25:57;12.87;;;10.40;;
11608;SDS011;5860;52.018;8.536;2023-04-09T13:28:25;12.23;;;9.40;;
11608;SDS011;5860;52.018;8.536;2023-04-09T13:30:52;11.33;;;9.37;;
11608;SDS011;5860;52.018;8.536;2023-04-09T13:33:19;14.00;;;10.20;;
11608;SDS011;5860;52.018;8.536;2023-04-09T13:35:47;13.23;;;10.00;;
11608;SDS011;5860;52.018;8.536;2023-04-09T13:38:14;10.97;;;9.57;;
11608;SDS011;5860;52.018;8.536;2023-04-09T13:40:41;11.77;;;9.57;;
11608;SDS011;5860;52.018;8.536;2023-04-09T13:43:08;12.93;;;9.40;;
11608;SDS011;5860;52.018;8.536;2023-04-09T13:45:34;13.77;;;9.63;;
11608;SDS011;5860;52.018;8.536;2023-04-09T13:48:02;11.70;;;9.43;;
11608;SDS011;5860;52.018;8.536;2023-04-09T13:50:29;11.03;;;8.77;;
11608;SDS011;5860;52.018;8.536;2023-04-09T13:52:56;10.63;;;8.63;;
11608;SDS011;5860;52.018;8.536;2023-04-09T13:55:23;10.03;;;8.53;;
11608;SDS011;5860;52.018;8.536;2023-04-09T13:57:50;11.03;;;9.20;;
11608;SDS011;5860;52.018;8.536;2023-04-09T14:00:17;9.63;;;8.63;;
11608;SDS011;5860;52.018;8.536;2023-04-09T14:02:45;11.83;;;9.17;;
11608;SDS011;5860;52.018;8.536;2023-04-09T14:05:13;10.67;;;8.80;;
11608;SDS011;5860;52.018;8.536;2023-04-09T14:07:39;11.03;;;9.33;;
11608;SDS011;5860;52.018;8.536;2023-04-09T14:10:06;11.60;;;9.50;;
11608;SDS011;5860;52.018;8.536;2023-04-09T14:12:34;10.00;;;8.53;;
11608;SDS011;5860;52.018;8.536;2023-04-09T14:15:01;11.93;;;9.33;;
11608;SDS011;5860;52.018;8.536;2023-04-09T14:17:28;16.20;;;12.03;;
11608;SDS011;5860;52.018;8.536;2023-04-09T14:19:55;14.37;;;11.37;;
11608;SDS011;5860;52.018;8.536;2023-04-09T14:22:25;14.50;;;11.40;;
11608;SDS011;5860;52.018;8.536;2023-04-09T14:24:56;12.83;;;10.03;;
11608;SDS011;5860;52.018;8.536;2023-04-09T14:27:23;11.47;;;9.53;;
11608;SDS011;5860;52.018;8.536;2023-04-09T14:29:51;11.37;;;9.27;;
11608;SDS011;5860;52.018;8.536;2023-04-09T14:32:18;10.93;;;8.83;;
11608;SDS011;5860;52.018;8.536;2023-04-09T14:34:45;12.80;;;11.00;;
11608;SDS011;5860;52.018;8.536;2023-04-09T14:37:12;11.33;;;8.83;;
11608;SDS011;5860;52.018;8.536;2023-04-09T14:39:39;15.30;;;11.73;;
11608;SDS011;5860;52.018;8.536;2023-04-09T14:42:06;13.10;;;10.73;;
11608;SDS011;5860;52.018;8.536;2023-04-09T14:44:33;10.80;;;9.03;;
11608;SDS011;5860;52.018;8.536;2023-04-09T14:47:00;14.43;;;10.97;;
11608;SDS011;5860;52.018;8.536;2023-04-09T14:49:27;15.30;;;12.43;;
11608;SDS011;5860;52.018;8.536;2023-04-09T14:51:57;11.87;;;8.87;;
11608;SDS011;5860;52.018;8.536;2023-04-09T14:54:25;10.60;;;9.33;;
11608;SDS011;5860;52.018;8.536;2023-04-09T14:56:52;13.37;;;9.80;;
11608;SDS011;5860;52.018;8.536;2023-04-09T14:59:19;12.33;;;10.47;;